»·PEaware :: N5GL KMRY-KWJF

N5GL :: KMRY-KWJF

FLIGHT INFORMATION

Flight Status: Arrived
Operator: Privately registered:
United States
More flights under this callsign
Pilot: Georg L. (13308)
Aircraft: SOCATA TBM-900
(TBM9)
More flights by this aircraft type
Origin: KMRY Monterey Peninsula
United States
Destination: KWJF Gen Fox
United States
More flights between these airports :: More routes between these airports
Route: +MRY5 SHOEY SNS ROBIE J6 LANDO
File this flight plan on PilotEdge
Remarks:
Altitude:
(Current/Filed)
23,000ft
Speed:
(Current/Filed)
311kts
Departed: 27-Sep-20 08:38 AM
Arrived: 27-Sep-20 09:35 AM
Distance/Time
Traveled:
209nm/0:57
Distance/Time
To Go:
Arrived

Flight Plot

Page will automatically refresh every two minutes.

Flight plan parsing failed; only flown route is shown


Map Options




Map Legend


Flown Route
Filed Route
Departure Airport
Arrival Airport
Navaid (VOR, NDB)
Fix

Horizontal Profiles

Position Reports

Time Latitude Longitude Heading Altitude Ground
Speed
27-Sep-20 08:17 36.588573 -121.855797 93 170ft 0kts
27-Sep-20 08:17 36.588573 -121.855797 93 170ft 0kts
27-Sep-20 08:18 36.588573 -121.855797 93 170ft 0kts
27-Sep-20 08:19 36.588573 -121.855797 93 170ft 0kts
27-Sep-20 08:20 36.588573 -121.855797 93 170ft 0kts
27-Sep-20 08:21 36.588573 -121.855797 93 170ft 0kts
27-Sep-20 08:22 36.588573 -121.855797 93 170ft 0kts
27-Sep-20 08:23 36.588573 -121.855797 93 170ft 0kts
27-Sep-20 08:24 36.588573 -121.855797 93 170ft 0kts
27-Sep-20 08:25 36.588573 -121.855797 93 170ft 0kts
27-Sep-20 08:26 36.588573 -121.855797 93 170ft 0kts
27-Sep-20 08:27 36.588573 -121.855797 93 170ft 0kts
27-Sep-20 08:28 36.588573 -121.855797 93 170ft 0kts
27-Sep-20 08:29 36.588573 -121.855797 93 170ft 0kts
27-Sep-20 08:30 36.588573 -121.855797 93 170ft 0kts
27-Sep-20 08:31 36.588573 -121.855797 93 170ft 0kts
27-Sep-20 08:32 36.589231 -121.853488 110 170ft 20kts
27-Sep-20 08:33 36.587194 -121.847442 113 170ft 21kts
27-Sep-20 08:34 36.584676 -121.840363 112 170ft 25kts
27-Sep-20 08:35 36.582832 -121.834762 96 170ft 0kts
27-Sep-20 08:36 36.583012 -121.833645 24 170ft 11kts
27-Sep-20 08:37 36.592644 -121.856819 298 980ft 123kts
27-Sep-20 08:38 36.624187 -121.877271 347 3326ft 133kts
27-Sep-20 08:39 36.657406 -121.890436 345 5975ft 128kts
27-Sep-20 08:40 36.691103 -121.904056 345 8463ft 130kts
27-Sep-20 08:41 36.715189 -121.934682 315 10774ft 141kts
27-Sep-20 08:42 36.730991 -121.905289 125 12108ft 211kts
27-Sep-20 08:43 36.701956 -121.841256 101 13772ft 214kts
27-Sep-20 08:44 36.689020 -121.767717 97 15364ft 221kts
27-Sep-20 08:45 36.677327 -121.691560 97 16978ft 227kts
27-Sep-20 08:46 36.665239 -121.613085 101 18577ft 235kts
27-Sep-20 08:47 36.614393 -121.559693 143 20189ft 246kts
27-Sep-20 08:48 36.558093 -121.510324 143 21689ft 251kts
27-Sep-20 08:49 36.500290 -121.459705 143 22998ft 263kts
27-Sep-20 08:50 36.435559 -121.403113 143 22999ft 298kts
27-Sep-20 08:51 36.366221 -121.342627 144 22993ft 309kts
27-Sep-20 08:52 36.295516 -121.281096 144 22991ft 311kts
27-Sep-20 08:53 36.224284 -121.219208 144 22991ft 312kts
27-Sep-20 08:54 36.152947 -121.157453 144 22993ft 313kts
27-Sep-20 08:55 36.081492 -121.095681 144 22999ft 313kts
27-Sep-20 08:56 36.009945 -121.033977 144 23003ft 314kts
27-Sep-20 08:57 35.962258 -120.949242 109 23011ft 308kts
27-Sep-20 08:58 35.930704 -120.850653 109 23010ft 308kts
27-Sep-20 08:59 35.899138 -120.752358 109 23010ft 308kts
27-Sep-20 09:00 35.867433 -120.653960 110 23008ft 308kts
27-Sep-20 09:01 35.835659 -120.555679 109 23008ft 309kts
27-Sep-20 09:02 35.800199 -120.459038 117 23009ft 310kts
27-Sep-20 09:03 35.756785 -120.366664 118 23008ft 311kts
27-Sep-20 09:04 35.713078 -120.274280 118 23008ft 311kts
27-Sep-20 09:05 35.669436 -120.182302 118 23008ft 311kts
27-Sep-20 09:06 35.625585 -120.090128 118 23008ft 311kts
27-Sep-20 09:07 35.581862 -119.998473 118 23008ft 311kts
27-Sep-20 09:08 35.537943 -119.906654 118 23009ft 311kts
27-Sep-20 09:09 35.493963 -119.814952 118 23007ft 312kts
27-Sep-20 09:10 35.449832 -119.723180 118 23020ft 311kts
27-Sep-20 09:11 35.405753 -119.631759 118 23027ft 311kts
27-Sep-20 09:12 35.361797 -119.540837 118 23035ft 311kts
27-Sep-20 09:13 35.317617 -119.449694 118 23037ft 311kts
27-Sep-20 09:14 35.273434 -119.358774 118 23037ft 311kts
27-Sep-20 09:15 35.228997 -119.267581 119 23037ft 311kts
27-Sep-20 09:16 35.184759 -119.177032 118 22986ft 312kts
27-Sep-20 09:17 35.138137 -119.081822 119 21544ft 333kts
27-Sep-20 09:18 35.090157 -118.984165 119 20057ft 336kts
27-Sep-20 09:19 35.042251 -118.886918 119 18578ft 333kts
27-Sep-20 09:20 34.994823 -118.790915 119 17116ft 327kts
27-Sep-20 09:21 34.948013 -118.696408 119 15673ft 322kts
27-Sep-20 09:22 34.902304 -118.604378 119 14261ft 313kts
27-Sep-20 09:23 34.858918 -118.517261 119 13986ft 288kts
27-Sep-20 09:24 34.817902 -118.435086 119 13989ft 281kts
27-Sep-20 09:25 34.777524 -118.354372 120 13990ft 279kts
27-Sep-20 09:26 34.737078 -118.273709 120 13990ft 279kts
27-Sep-20 09:27 34.696549 -118.193070 120 13800ft 285kts
27-Sep-20 09:28 34.652394 -118.105463 121 11205ft 302kts
27-Sep-20 09:29 34.579066 -118.091269 215 8464ft 292kts
27-Sep-20 09:30 34.592323 -118.162243 357 6967ft 250kts
27-Sep-20 09:31 34.656426 -118.149029 12 6071ft 235kts
27-Sep-20 09:32 34.719642 -118.154475 341 4059ft 226kts
27-Sep-20 09:33 34.753536 -118.189866 222 3045ft 149kts
27-Sep-20 09:34 34.741540 -118.216748 252 2346ft 30kts
27-Sep-20 09:35 34.740302 -118.218197 161 2346ft 0kts
27-Sep-20 09:36 34.740581 -118.216734 76 2346ft 8kts
27-Sep-20 09:37 34.739039 -118.216871 251 2346ft 0kts
27-Sep-20 09:38 34.739039 -118.216871 251 2346ft 0kts
27-Sep-20 09:39 34.739039 -118.216870 251 2346ft 0kts
27-Sep-20 09:40 34.739039 -118.216870 251 2346ft 0kts
27-Sep-20 09:41 34.739039 -118.216870 251 2346ft 0kts
27-Sep-20 09:42 34.739039 -118.216870 251 2346ft 0kts
27-Sep-20 09:43 34.739039 -118.216870 251 2346ft 0kts
27-Sep-20 09:45 34.739039 -118.216870 251 2346ft 0kts
27-Sep-20 09:46 34.739039 -118.216870 251 2346ft 0kts
27-Sep-20 09:47 34.739039 -118.216870 251 2346ft 0kts
27-Sep-20 09:48 34.739039 -118.216870 251 2346ft 0kts
27-Sep-20 09:49 34.739039 -118.216870 251 2345ft 0kts

Navigation Log

Ident Type
Flight plan parsing failed, navigation log unavailable